Pagrindinis puslapis
METAR-TAF:

METAR-TAF

Oro uostai :

Tumbes, Peru

platuma: 03-33S, ilguma: 080-24W, Aukštis: 25 m

Dabartinis oras

Ataskaita buvo paskelbta 11 valandos ir 28 minutes, ne 22:00 UTC
Vėjas 5 kt iš Vakarų
Temperatūra 30°C
Drėgmė 62%
Slėgis 1007 hPa
Matomumas 10 km arba daugiau
Išsisklaidę debesys ne aukštis 2000 ft

METAR: SPME 232200Z 28005KT 9999 SCT020 30/22 Q1007 RMK BIRD HAZARD RWY 32/14

Laikas: 04:28 (09:28 UTC)

Prognozė

Ataskaita buvo paskelbta 16 valandos ir 18 minutes, ne 17:10 UTC
Prognozė galioja nuo 23 metu 18 UTC su 24 metu 18 UTC
Vėjas 8 kt iš Vakarų/Šiaurės Vakarų
Matomumas 10 km arba daugiau
Išsisklaidę debesys ne aukštis 2000 ft
Laikinai
nuo 24 metu 12 UTC su 24 metu 13 UTC
Vėjas 4 kt iš Šiaurės Vakarų
Išsisklaidę debesys ne aukštis 1500 ft

TAF: SPME 231710Z 2318/2418 30008KT 9999 SCT020 TX32/2319Z TN24/2411Z TEMPO 2412/2413 32004KT SCT015

Orai ataskaitas ir orų prognozės (METAR, TAF).

turimą stotys yra geltonos ir raudonos taškus žemėlapyje.

Perkelti pele per norėdami pamatyti stoties vardą.

Tada spustelėkite, norėdami matyti oro stebėjimo ir prognozės.

Norėdami pakeisti žemėlapį: spustelėkite ant žalios mygtukų su juodo kryžiaus žemyn,; žalią mygtuką su brūkšneliu, jei norite nutolinti; arba žalių rodyklių gretimoms žemėlapius.


METAR-TAF: